^^
Station Historical Data
 
Daily Summary for June 22, 2017 Units:  Both    English   Metric
« Previous Day
Next Day »
Daily Weekly Monthly Yearly Custom
  Current: High: Low: Average:
Temperature: 88.8 °F /  31.6 °C 97.0 °F /  36.1 °C 87.8 °F /  31 °C 92.4 °F /  33.6 °C
Dew Point: 55.1 °F /  12.8 °C 55.8 °F /  13.2 °C 53.9 °F /  12.2 °C 54.9 °F /  12.7 °C
Humidity: 32% 33% 24% 28%
Wind Speed: 0.0mph /  0km/h 5.5mph /  8.9km/h - 0.4mph /  0.6km/h
Wind Gust: 4.6mph /  7.4km/h 11.5mph /  18.5km/h - -
WindCalm - - ESE
Pressure: 29.67 in /  1004.6 hPa 29.67 in /  1004.6 hPa 29.60 in /  1002.3 hPa -
Precipitation: 0.00 in /  0 mm      
Historical Graphs
 
 
Tabular Data for June 22, 2017
Time Temperature Dew Point Pressure Wind Wind Speed Wind Gust Humidity Rainfall Rate (Hourly) solar Conditions
00:04 97.0 °F /  36.1 °C 54.2 °F /  12.3 °C 29.60in /  1002.3hPa ESE 1.6mph /  2.6km/h 8.1mph /  13km/h 24% 0.00in /  0mm WeatherDisplay:10.37 W/m2 CLR
00:09 96.8 °F /  36 °C 55.2 °F /  12.9 °C 29.60in /  1002.3hPa Calm     25% 0.00in /  0mm WeatherDisplay:10.37 W/m2 CLR
00:14 96.7 °F /  35.9 °C 55.1 °F /  12.8 °C 29.60in /  1002.3hPa Calm     25% 0.00in /  0mm WeatherDisplay:10.37 W/m2 CLR
00:19 96.5 °F /  35.8 °C 54.9 °F /  12.7 °C 29.60in /  1002.3hPa ESE 1.2mph /  1.9km/h 5.8mph /  9.3km/h 25% 0.00in /  0mm WeatherDisplay:10.37 W/m2 CLR
00:24 96.4 °F /  35.8 °C 54.8 °F /  12.7 °C 29.60in /  1002.3hPa Calm     25% 0.00in /  0mm WeatherDisplay:10.37 W/m2 CLR
00:29 96.2 °F /  35.7 °C 54.7 °F /  12.6 °C 29.60in /  1002.3hPa ESE 3.4mph /  5.5km/h 11.5mph /  18.5km/h 25% 0.00in /  0mm WeatherDisplay:10.37 W/m2 CLR
00:34 96.0 °F /  35.6 °C 54.5 °F /  12.5 °C 29.60in /  1002.3hPa Calm     25% 0.00in /  0mm WeatherDisplay:10.37 W/m2 CLR
00:39 95.8 °F /  35.4 °C 54.3 °F /  12.4 °C 29.60in /  1002.3hPa Calm     25% 0.00in /  0mm WeatherDisplay:10.37 W/m2 CLR
00:44 95.5 °F /  35.3 °C 55.2 °F /  12.9 °C 29.60in /  1002.3hPa Calm     26% 0.00in /  0mm WeatherDisplay:10.37 W/m2 CLR
00:49 95.3 °F /  35.2 °C 55.0 °F /  12.8 °C 29.60in /  1002.3hPa Calm     26% 0.00in /  0mm WeatherDisplay:10.37 W/m2 CLR
00:54 95.2 °F /  35.1 °C 54.9 °F /  12.7 °C 29.60in /  1002.3hPa Calm   2.3mph /  3.7km/h 26% 0.00in /  0mm WeatherDisplay:10.37 W/m2 CLR
00:59 95.1 °F /  35.1 °C 54.8 °F /  12.7 °C 29.60in /  1002.3hPa Calm     26% 0.00in /  0mm WeatherDisplay:10.37 W/m2 CLR
01:04 94.9 °F /  34.9 °C 54.7 °F /  12.6 °C 29.60in /  1002.3hPa Calm     26% 0.00in /  0mm WeatherDisplay:10.37 W/m2 CLR
01:09 94.8 °F /  34.9 °C 54.6 °F /  12.6 °C 29.60in /  1002.3hPa Calm     26% 0.00in /  0mm WeatherDisplay:10.37 W/m2 CLR
01:14 94.5 °F /  34.7 °C 54.3 °F /  12.4 °C 29.61in /  1002.6hPa Calm     26% 0.00in /  0mm WeatherDisplay:10.37 W/m2 CLR
01:19 94.4 °F /  34.7 °C 55.3 °F /  12.9 °C 29.61in /  1002.6hPa Calm     27% 0.00in /  0mm WeatherDisplay:10.37 W/m2 CLR
01:24 94.3 °F /  34.6 °C 55.2 °F /  12.9 °C 29.61in /  1002.6hPa ESE 0.1mph /  0.2km/h 4.6mph /  7.4km/h 27% 0.00in /  0mm WeatherDisplay:10.37 W/m2 CLR
01:29 94.3 °F /  34.6 °C 55.2 °F /  12.9 °C 29.61in /  1002.6hPa ESE 1.6mph /  2.6km/h 9.2mph /  14.8km/h 27% 0.00in /  0mm WeatherDisplay:10.37 W/m2 CLR
01:34 94.3 °F /  34.6 °C 55.2 °F /  12.9 °C 29.61in /  1002.6hPa ESE 5.5mph /  8.9km/h 8.1mph /  13km/h 27% 0.00in /  0mm WeatherDisplay:10.37 W/m2 CLR
01:39 94.2 °F /  34.6 °C 55.1 °F /  12.8 °C 29.61in /  1002.6hPa ESE 0.9mph /  1.4km/h 8.1mph /  13km/h 27% 0.00in /  0mm WeatherDisplay:10.37 W/m2 CLR
01:44 94.0 °F /  34.4 °C 54.9 °F /  12.7 °C 29.61in /  1002.6hPa ESE 0.3mph /  0.5km/h 11.5mph /  18.5km/h 27% 0.00in /  0mm WeatherDisplay:10.37 W/m2 CLR
01:49 93.8 °F /  34.3 °C 54.8 °F /  12.7 °C 29.61in /  1002.6hPa ESE 2.0mph /  3.2km/h 8.1mph /  13km/h 27% 0.00in /  0mm WeatherDisplay:10.37 W/m2 CLR
01:54 93.8 °F /  34.3 °C 54.8 °F /  12.7 °C 29.61in /  1002.6hPa Calm     27% 0.00in /  0mm WeatherDisplay:10.37 W/m2 CLR
01:59 93.6 °F /  34.2 °C 54.6 °F /  12.6 °C 29.61in /  1002.6hPa Calm     27% 0.00in /  0mm WeatherDisplay:10.37 W/m2 CLR
02:05 93.5 °F /  34.2 °C 55.5 °F /  13.1 °C 29.61in /  1002.6hPa Calm     28% 0.00in /  0mm WeatherDisplay:10.37 W/m2 CLR
02:10 93.3 °F /  34.1 °C 55.3 °F /  12.9 °C 29.61in /  1002.6hPa Calm     28% 0.00in /  0mm WeatherDisplay:10.37 W/m2 CLR
02:15 93.1 °F /  33.9 °C 55.2 °F /  12.9 °C 29.62in /  1002.9hPa Calm     28% 0.00in /  0mm WeatherDisplay:10.37 W/m2 CLR
02:20 92.8 °F /  33.8 °C 54.9 °F /  12.7 °C 29.62in /  1002.9hPa Calm   6.0mph /  9.7km/h 28% 0.00in /  0mm WeatherDisplay:10.37 W/m2 CLR
02:25 92.7 °F /  33.7 °C 55.8 °F /  13.2 °C 29.62in /  1002.9hPa Calm   5.0mph /  8km/h 29% 0.00in /  0mm WeatherDisplay:10.37 W/m2 CLR
02:30 92.5 °F /  33.6 °C 55.6 °F /  13.1 °C 29.62in /  1002.9hPa Calm     29% 0.00in /  0mm WeatherDisplay:10.37 W/m2 CLR
02:35 92.3 °F /  33.5 °C 55.4 °F /  13 °C 29.62in /  1002.9hPa Calm   8.1mph /  13km/h 29% 0.00in /  0mm WeatherDisplay:10.37 W/m2 CLR
02:40 92.3 °F /  33.5 °C 55.4 °F /  13 °C 29.62in /  1002.9hPa Calm     29% 0.00in /  0mm WeatherDisplay:10.37 W/m2 CLR
02:45 92.3 °F /  33.5 °C 55.4 °F /  13 °C 29.62in /  1002.9hPa Calm     29% 0.00in /  0mm WeatherDisplay:10.37 W/m2 CLR
02:50 92.0 °F /  33.3 °C 55.2 °F /  12.9 °C 29.62in /  1002.9hPa ESE 0.5mph /  0.8km/h 4.6mph /  7.4km/h 29% 0.00in /  0mm WeatherDisplay:10.37 W/m2 CLR
02:55 91.9 °F /  33.3 °C 55.1 °F /  12.8 °C 29.62in /  1002.9hPa Calm     29% 0.00in /  0mm WeatherDisplay:10.37 W/m2 CLR
03:00 91.8 °F /  33.2 °C 55.0 °F /  12.8 °C 29.62in /  1002.9hPa ESE 0.8mph /  1.3km/h 5.8mph /  9.3km/h 29% 0.00in /  0mm WeatherDisplay:10.37 W/m2 CLR
03:05 92.0 °F /  33.3 °C 55.2 °F /  12.9 °C 29.62in /  1002.9hPa Calm     29% 0.00in /  0mm WeatherDisplay:10.37 W/m2 CLR
03:10 91.9 °F /  33.3 °C 55.1 °F /  12.8 °C 29.62in /  1002.9hPa Calm   5.8mph /  9.3km/h 29% 0.00in /  0mm WeatherDisplay:10.37 W/m2 CLR
03:15 91.8 °F /  33.2 °C 55.0 °F /  12.8 °C 29.62in /  1002.9hPa Calm     29% 0.00in /  0mm WeatherDisplay:10.37 W/m2 CLR
03:20 91.6 °F /  33.1 °C 54.8 °F /  12.7 °C 29.62in /  1002.9hPa Calm     29% 0.00in /  0mm WeatherDisplay:10.37 W/m2 CLR
03:25 91.4 °F /  33 °C 54.7 °F /  12.6 °C 29.62in /  1002.9hPa Calm     29% 0.00in /  0mm WeatherDisplay:10.37 W/m2 CLR
03:30 91.3 °F /  32.9 °C 54.6 °F /  12.6 °C 29.63in /  1003.3hPa Calm   2.3mph /  3.7km/h 29% 0.00in /  0mm WeatherDisplay:10.37 W/m2 CLR
03:35 91.2 °F /  32.9 °C 54.5 °F /  12.5 °C 29.63in /  1003.3hPa ESE 3.3mph /  5.3km/h 8.1mph /  13km/h 29% 0.00in /  0mm WeatherDisplay:10.37 W/m2 CLR
03:40 91.2 °F /  32.9 °C 54.5 °F /  12.5 °C 29.63in /  1003.3hPa Calm     29% 0.00in /  0mm WeatherDisplay:10.37 W/m2 CLR
03:45 90.4 °F /  32.4 °C 54.7 °F /  12.6 °C 29.64in /  1003.6hPa Calm     30% 0.00in /  0mm WeatherDisplay:10.37 W/m2 CLR
03:50 89.5 °F /  31.9 °C 54.9 °F /  12.7 °C 29.64in /  1003.6hPa Calm     31% 0.00in /  0mm WeatherDisplay:10.37 W/m2 CLR
03:56 88.9 °F /  31.6 °C 55.2 °F /  12.9 °C 29.64in /  1003.6hPa Calm     32% 0.00in /  0mm WeatherDisplay:10.37 W/m2 CLR
04:01 88.1 °F /  31.2 °C 54.5 °F /  12.5 °C 29.64in /  1003.6hPa Calm     32% 0.00in /  0mm WeatherDisplay:10.37 W/m2 CLR
04:06 87.8 °F /  31 °C 55.1 °F /  12.8 °C 29.64in /  1003.6hPa Calm     33% 0.00in /  0mm WeatherDisplay:10.37 W/m2 CLR
04:11 88.2 °F /  31.2 °C 54.6 °F /  12.6 °C 29.64in /  1003.6hPa Calm     32% 0.00in /  0mm WeatherDisplay:10.37 W/m2 CLR
04:16 88.3 °F /  31.3 °C 54.7 °F /  12.6 °C 29.66in /  1004.3hPa Calm     32% 0.00in /  0mm WeatherDisplay:10.37 W/m2 CLR
04:21 88.1 °F /  31.2 °C 54.5 °F /  12.5 °C 29.66in /  1004.3hPa Calm     32% 0.00in /  0mm WeatherDisplay:10.37 W/m2 CLR
04:26 88.4 °F /  31.3 °C 53.9 °F /  12.2 °C 29.66in /  1004.3hPa Calm     31% 0.00in /  0mm WeatherDisplay:10.37 W/m2 CLR
04:31 88.6 °F /  31.4 °C 54.1 °F /  12.3 °C 29.66in /  1004.3hPa Calm     31% 0.00in /  0mm WeatherDisplay:10.37 W/m2 CLR
04:36 89.0 °F /  31.7 °C 54.4 °F /  12.4 °C 29.66in /  1004.3hPa Calm     31% 0.00in /  0mm WeatherDisplay:10.37 W/m2 CLR
04:41 89.2 °F /  31.8 °C 54.6 °F /  12.6 °C 29.66in /  1004.3hPa ESE 2.3mph /  3.7km/h 4.6mph /  7.4km/h 31% 0.00in /  0mm WeatherDisplay:10.37 W/m2 CLR
04:46 89.2 °F /  31.8 °C 54.6 °F /  12.6 °C 29.67in /  1004.6hPa Calm     31% 0.00in /  0mm WeatherDisplay:10.37 W/m2 CLR
04:51 89.1 °F /  31.7 °C 54.5 °F /  12.5 °C 29.67in /  1004.6hPa Calm     31% 0.00in /  0mm WeatherDisplay:10.37 W/m2 CLR
04:56 88.9 °F /  31.6 °C 54.4 °F /  12.4 °C 29.67in /  1004.6hPa Calm   6.9mph /  11.1km/h 31% 0.00in /  0mm WeatherDisplay:10.37 W/m2 CLR
05:01 88.7 °F /  31.5 °C 55.1 °F /  12.8 °C 29.67in /  1004.6hPa ESE 3.9mph /  6.3km/h 5.8mph /  9.3km/h 32% 0.00in /  0mm WeatherDisplay:10.37 W/m2 CLR
05:06 88.8 °F /  31.6 °C 55.1 °F /  12.8 °C 29.67in /  1004.6hPa Calm   4.6mph /  7.4km/h 32% 0.00in /  0mm WeatherDisplay:10.37 W/m2 CLR
Youngtown, Arizona, USA
Compliments of Weather Underground - 2.25 mb